sensor_id;sensor_type;location;lat;lon;timestamp;P1;durP1;ratioP1;P2;durP2;ratioP2
48028;SDS011;33808;37.368;127.108;2022-12-05T00:02:08;5.30;;;2.67;;
48028;SDS011;33808;37.368;127.108;2022-12-05T00:04:37;3.60;;;2.35;;
48028;SDS011;33808;37.368;127.108;2022-12-05T00:07:07;3.45;;;2.20;;
48028;SDS011;33808;37.368;127.108;2022-12-05T00:09:37;6.60;;;2.90;;
48028;SDS011;33808;37.368;127.108;2022-12-05T00:12:06;4.85;;;2.33;;
48028;SDS011;33808;37.368;127.108;2022-12-05T00:14:37;4.68;;;2.50;;
48028;SDS011;33808;37.368;127.108;2022-12-05T00:17:07;7.63;;;2.58;;
48028;SDS011;33808;37.368;127.108;2022-12-05T00:19:37;4.40;;;2.72;;
48028;SDS011;33808;37.368;127.108;2022-12-05T00:22:07;3.78;;;2.22;;
48028;SDS011;33808;37.368;127.108;2022-12-05T00:24:37;4.97;;;2.75;;
48028;SDS011;33808;37.368;127.108;2022-12-05T00:27:07;5.38;;;2.70;;
48028;SDS011;33808;37.368;127.108;2022-12-05T00:29:37;4.25;;;2.30;;
48028;SDS011;33808;37.368;127.108;2022-12-05T00:32:06;3.72;;;2.25;;
48028;SDS011;33808;37.368;127.108;2022-12-05T00:34:36;3.63;;;2.30;;
48028;SDS011;33808;37.368;127.108;2022-12-05T00:37:06;3.97;;;2.40;;
48028;SDS011;33808;37.368;127.108;2022-12-05T00:39:35;5.88;;;2.30;;
48028;SDS011;33808;37.368;127.108;2022-12-05T00:42:05;4.55;;;2.13;;
48028;SDS011;33808;37.368;127.108;2022-12-05T00:44:35;5.30;;;2.58;;
48028;SDS011;33808;37.368;127.108;2022-12-05T00:47:04;3.97;;;2.35;;
48028;SDS011;33808;37.368;127.108;2022-12-05T00:49:34;6.57;;;2.33;;
48028;SDS011;33808;37.368;127.108;2022-12-05T00:52:04;4.90;;;2.15;;
48028;SDS011;33808;37.368;127.108;2022-12-05T00:54:34;3.28;;;2.30;;
48028;SDS011;33808;37.368;127.108;2022-12-05T00:57:04;5.03;;;2.65;;
48028;SDS011;33808;37.368;127.108;2022-12-05T00:59:33;3.72;;;2.08;;
48028;SDS011;33808;37.368;127.108;2022-12-05T01:02:03;3.78;;;2.30;;
48028;SDS011;33808;37.368;127.108;2022-12-05T01:04:32;6.05;;;2.30;;
48028;SDS011;33808;37.368;127.108;2022-12-05T01:07:02;3.83;;;2.28;;
48028;SDS011;33808;37.368;127.108;2022-12-05T01:09:32;4.15;;;2.40;;
48028;SDS011;33808;37.368;127.108;2022-12-05T01:12:01;9.40;;;2.50;;
48028;SDS011;33808;37.368;127.108;2022-12-05T01:14:31;4.05;;;2.30;;
48028;SDS011;33808;37.368;127.108;2022-12-05T01:17:02;6.00;;;3.65;;
48028;SDS011;33808;37.368;127.108;2022-12-05T01:19:31;4.68;;;2.42;;
48028;SDS011;33808;37.368;127.108;2022-12-05T01:22:01;4.55;;;2.45;;
48028;SDS011;33808;37.368;127.108;2022-12-05T01:24:31;5.43;;;2.58;;
48028;SDS011;33808;37.368;127.108;2022-12-05T01:27:00;6.40;;;2.28;;
48028;SDS011;33808;37.368;127.108;2022-12-05T01:29:30;6.20;;;2.42;;
48028;SDS011;33808;37.368;127.108;2022-12-05T01:32:00;4.00;;;2.15;;
48028;SDS011;33808;37.368;127.108;2022-12-05T01:34:30;4.32;;;2.00;;
48028;SDS011;33808;37.368;127.108;2022-12-05T01:36:59;4.70;;;2.90;;
48028;SDS011;33808;37.368;127.108;2022-12-05T01:39:29;6.20;;;2.35;;
48028;SDS011;33808;37.368;127.108;2022-12-05T01:41:59;4.38;;;2.08;;
48028;SDS011;33808;37.368;127.108;2022-12-05T01:46:58;5.13;;;2.25;;
48028;SDS011;33808;37.368;127.108;2022-12-05T01:49:38;4.38;;;1.80;;
48028;SDS011;33808;37.368;127.108;2022-12-05T01:52:13;4.47;;;2.58;;
48028;SDS011;33808;37.368;127.108;2022-12-05T01:54:47;5.05;;;2.20;;
48028;SDS011;33808;37.368;127.108;2022-12-05T01:57:19;4.70;;;2.22;;
48028;SDS011;33808;37.368;127.108;2022-12-05T01:59:52;9.23;;;2.30;;
48028;SDS011;33808;37.368;127.108;2022-12-05T02:02:26;4.38;;;2.20;;
48028;SDS011;33808;37.368;127.108;2022-12-05T02:05:04;6.43;;;2.58;;
48028;SDS011;33808;37.368;127.108;2022-12-05T02:07:49;4.63;;;2.10;;
48028;SDS011;33808;37.368;127.108;2022-12-05T02:10:20;3.55;;;2.40;;
48028;SDS011;33808;37.368;127.108;2022-12-05T02:12:50;2.75;;;1.88;;
48028;SDS011;33808;37.368;127.108;2022-12-05T02:15:24;3.72;;;2.38;;
48028;SDS011;33808;37.368;127.108;2022-12-05T02:29:40;4.38;;;2.10;;
48028;SDS011;33808;37.368;127.108;2022-12-05T02:43:40;4.03;;;2.92;;
48028;SDS011;33808;37.368;127.108;2022-12-05T02:46:20;4.25;;;2.70;;
48028;SDS011;33808;37.368;127.108;2022-12-05T02:48:53;5.65;;;2.85;;
48028;SDS011;33808;37.368;127.108;2022-12-05T02:51:37;6.07;;;2.47;;
48028;SDS011;33808;37.368;127.108;2022-12-05T02:54:14;5.63;;;2.65;;
48028;SDS011;33808;37.368;127.108;2022-12-05T02:56:47;4.60;;;2.88;;
48028;SDS011;33808;37.368;127.108;2022-12-05T02:59:18;5.68;;;2.80;;
48028;SDS011;33808;37.368;127.108;2022-12-05T03:01:49;5.85;;;2.55;;
48028;SDS011;33808;37.368;127.108;2022-12-05T03:04:20;4.45;;;2.45;;
48028;SDS011;33808;37.368;127.108;2022-12-05T03:07:14;7.05;;;2.55;;
48028;SDS011;33808;37.368;127.108;2022-12-05T03:09:53;6.03;;;2.70;;
48028;SDS011;33808;37.368;127.108;2022-12-05T03:12:28;3.55;;;2.40;;
48028;SDS011;33808;37.368;127.108;2022-12-05T03:17:37;4.97;;;3.17;;
48028;SDS011;33808;37.368;127.108;2022-12-05T03:20:19;6.40;;;2.60;;
48028;SDS011;33808;37.368;127.108;2022-12-05T03:22:57;5.55;;;2.67;;
48028;SDS011;33808;37.368;127.108;2022-12-05T03:25:38;3.75;;;2.42;;
48028;SDS011;33808;37.368;127.108;2022-12-05T03:28:33;5.50;;;2.83;;
48028;SDS011;33808;37.368;127.108;2022-12-05T03:31:20;4.03;;;2.20;;
48028;SDS011;33808;37.368;127.108;2022-12-05T03:34:13;4.93;;;2.60;;
48028;SDS011;33808;37.368;127.108;2022-12-05T03:36:48;5.53;;;2.65;;
48028;SDS011;33808;37.368;127.108;2022-12-05T03:39:22;5.40;;;2.33;;
48028;SDS011;33808;37.368;127.108;2022-12-05T03:44:58;6.00;;;2.33;;
48028;SDS011;33808;37.368;127.108;2022-12-05T03:50:33;3.70;;;2.28;;
48028;SDS011;33808;37.368;127.108;2022-12-05T03:53:06;3.55;;;2.10;;
48028;SDS011;33808;37.368;127.108;2022-12-05T03:55:48;4.07;;;2.17;;
48028;SDS011;33808;37.368;127.108;2022-12-05T03:58:26;4.32;;;2.22;;
48028;SDS011;33808;37.368;127.108;2022-12-05T04:01:17;3.88;;;2.67;;
48028;SDS011;33808;37.368;127.108;2022-12-05T04:04:00;3.25;;;2.35;;
48028;SDS011;33808;37.368;127.108;2022-12-05T04:06:36;2.15;;;1.90;;
48028;SDS011;33808;37.368;127.108;2022-12-05T04:09:14;4.45;;;2.50;;
48028;SDS011;33808;37.368;127.108;2022-12-05T04:12:00;3.90;;;2.40;;
48028;SDS011;33808;37.368;127.108;2022-12-05T04:14:36;3.60;;;2.20;;
48028;SDS011;33808;37.368;127.108;2022-12-05T04:20:31;3.42;;;2.10;;
48028;SDS011;33808;37.368;127.108;2022-12-05T04:23:24;4.20;;;2.20;;
48028;SDS011;33808;37.368;127.108;2022-12-05T04:26:17;4.00;;;2.28;;
48028;SDS011;33808;37.368;127.108;2022-12-05T04:28:56;2.80;;;2.00;;
48028;SDS011;33808;37.368;127.108;2022-12-05T04:31:40;2.92;;;2.00;;
48028;SDS011;33808;37.368;127.108;2022-12-05T04:34:12;3.92;;;2.10;;
48028;SDS011;33808;37.368;127.108;2022-12-05T04:36:50;7.43;;;2.30;;
48028;SDS011;33808;37.368;127.108;2022-12-05T04:39:50;2.92;;;1.70;;
48028;SDS011;33808;37.368;127.108;2022-12-05T04:42:25;3.63;;;1.92;;
48028;SDS011;33808;37.368;127.108;2022-12-05T04:47:30;7.68;;;2.10;;
48028;SDS011;33808;37.368;127.108;2022-12-05T04:50:05;8.95;;;2.45;;
48028;SDS011;33808;37.368;127.108;2022-12-05T04:52:38;4.15;;;1.98;;
48028;SDS011;33808;37.368;127.108;2022-12-05T04:55:12;3.67;;;2.20;;
48028;SDS011;33808;37.368;127.108;2022-12-05T04:57:48;4.22;;;2.40;;
48028;SDS011;33808;37.368;127.108;2022-12-05T05:00:20;4.05;;;2.10;;
48028;SDS011;33808;37.368;127.108;2022-12-05T05:06:00;3.05;;;1.88;;
48028;SDS011;33808;37.368;127.108;2022-12-05T05:08:31;3.75;;;2.30;;
48028;SDS011;33808;37.368;127.108;2022-12-05T05:13:45;2.90;;;1.88;;
48028;SDS011;33808;37.368;127.108;2022-12-05T05:16:16;4.10;;;2.13;;
48028;SDS011;33808;37.368;127.108;2022-12-05T05:18:48;4.20;;;2.10;;
48028;SDS011;33808;37.368;127.108;2022-12-05T05:21:20;3.20;;;1.95;;
48028;SDS011;33808;37.368;127.108;2022-12-05T05:23:54;6.43;;;2.17;;
48028;SDS011;33808;37.368;127.108;2022-12-05T05:26:25;4.20;;;2.03;;
48028;SDS011;33808;37.368;127.108;2022-12-05T05:28:56;3.42;;;2.03;;
48028;SDS011;33808;37.368;127.108;2022-12-05T05:31:26;3.95;;;2.38;;
48028;SDS011;33808;37.368;127.108;2022-12-05T05:33:56;5.18;;;2.28;;
48028;SDS011;33808;37.368;127.108;2022-12-05T05:36:34;3.67;;;1.88;;
48028;SDS011;33808;37.368;127.108;2022-12-05T05:39:05;3.83;;;2.33;;
48028;SDS011;33808;37.368;127.108;2022-12-05T05:41:39;2.30;;;1.80;;
48028;SDS011;33808;37.368;127.108;2022-12-05T05:44:09;3.65;;;2.05;;
48028;SDS011;33808;37.368;127.108;2022-12-05T05:46:38;4.05;;;2.05;;
48028;SDS011;33808;37.368;127.108;2022-12-05T05:49:08;5.20;;;1.98;;
48028;SDS011;33808;37.368;127.108;2022-12-05T05:51:38;3.03;;;1.98;;
48028;SDS011;33808;37.368;127.108;2022-12-05T05:54:08;4.05;;;2.58;;
48028;SDS011;33808;37.368;127.108;2022-12-05T05:56:38;3.50;;;1.92;;
48028;SDS011;33808;37.368;127.108;2022-12-05T05:59:08;5.45;;;1.83;;
48028;SDS011;33808;37.368;127.108;2022-12-05T06:01:37;3.22;;;2.08;;
48028;SDS011;33808;37.368;127.108;2022-12-05T06:04:07;3.95;;;1.95;;
48028;SDS011;33808;37.368;127.108;2022-12-05T06:06:37;3.08;;;1.75;;
48028;SDS011;33808;37.368;127.108;2022-12-05T06:09:08;4.00;;;2.05;;
48028;SDS011;33808;37.368;127.108;2022-12-05T06:11:38;3.63;;;1.90;;
48028;SDS011;33808;37.368;127.108;2022-12-05T06:14:07;3.97;;;2.03;;
48028;SDS011;33808;37.368;127.108;2022-12-05T06:16:37;4.57;;;2.53;;
48028;SDS011;33808;37.368;127.108;2022-12-05T06:19:07;4.82;;;2.35;;
48028;SDS011;33808;37.368;127.108;2022-12-05T06:21:36;3.67;;;2.30;;
48028;SDS011;33808;37.368;127.108;2022-12-05T06:24:06;6.22;;;2.30;;
48028;SDS011;33808;37.368;127.108;2022-12-05T06:26:36;4.50;;;2.30;;
48028;SDS011;33808;37.368;127.108;2022-12-05T06:29:06;3.50;;;2.30;;
48028;SDS011;33808;37.368;127.108;2022-12-05T06:31:35;4.13;;;1.95;;
48028;SDS011;33808;37.368;127.108;2022-12-05T06:34:05;4.10;;;1.73;;
48028;SDS011;33808;37.368;127.108;2022-12-05T06:36:35;3.28;;;1.90;;
48028;SDS011;33808;37.368;127.108;2022-12-05T06:39:05;2.42;;;1.98;;
48028;SDS011;33808;37.368;127.108;2022-12-05T06:41:34;3.85;;;2.35;;
48028;SDS011;33808;37.368;127.108;2022-12-05T06:44:04;3.88;;;1.88;;
48028;SDS011;33808;37.368;127.108;2022-12-05T06:46:33;4.60;;;2.35;;
48028;SDS011;33808;37.368;127.108;2022-12-05T06:49:03;3.55;;;1.90;;
48028;SDS011;33808;37.368;127.108;2022-12-05T06:51:33;4.90;;;2.17;;
48028;SDS011;33808;37.368;127.108;2022-12-05T06:54:02;7.03;;;2.25;;
48028;SDS011;33808;37.368;127.108;2022-12-05T06:56:32;3.13;;;2.08;;
48028;SDS011;33808;37.368;127.108;2022-12-05T06:59:02;2.92;;;1.85;;
48028;SDS011;33808;37.368;127.108;2022-12-05T07:01:32;4.25;;;2.45;;
48028;SDS011;33808;37.368;127.108;2022-12-05T07:06:51;4.75;;;2.00;;
48028;SDS011;33808;37.368;127.108;2022-12-05T07:09:23;5.95;;;2.03;;
48028;SDS011;33808;37.368;127.108;2022-12-05T07:12:12;3.40;;;1.77;;
48028;SDS011;33808;37.368;127.108;2022-12-05T07:14:43;4.38;;;2.05;;
48028;SDS011;33808;37.368;127.108;2022-12-05T07:17:19;3.57;;;1.77;;
48028;SDS011;33808;37.368;127.108;2022-12-05T07:19:49;3.63;;;2.10;;
48028;SDS011;33808;37.368;127.108;2022-12-05T07:22:21;3.80;;;2.25;;
48028;SDS011;33808;37.368;127.108;2022-12-05T07:24:51;4.88;;;2.10;;
48028;SDS011;33808;37.368;127.108;2022-12-05T07:27:21;3.97;;;2.03;;
48028;SDS011;33808;37.368;127.108;2022-12-05T07:29:53;4.32;;;2.10;;
48028;SDS011;33808;37.368;127.108;2022-12-05T07:32:24;3.50;;;2.22;;
48028;SDS011;33808;37.368;127.108;2022-12-05T07:34:54;4.00;;;2.00;;
48028;SDS011;33808;37.368;127.108;2022-12-05T07:37:23;4.95;;;2.47;;
48028;SDS011;33808;37.368;127.108;2022-12-05T07:39:53;3.53;;;2.20;;
48028;SDS011;33808;37.368;127.108;2022-12-05T07:42:23;4.47;;;2.05;;
48028;SDS011;33808;37.368;127.108;2022-12-05T07:44:52;4.38;;;2.22;;
48028;SDS011;33808;37.368;127.108;2022-12-05T07:47:22;3.22;;;1.80;;
48028;SDS011;33808;37.368;127.108;2022-12-05T07:49:52;3.92;;;1.98;;
48028;SDS011;33808;37.368;127.108;2022-12-05T07:52:22;3.45;;;2.33;;
48028;SDS011;33808;37.368;127.108;2022-12-05T07:54:52;3.40;;;1.90;;
48028;SDS011;33808;37.368;127.108;2022-12-05T07:57:21;4.70;;;2.10;;
48028;SDS011;33808;37.368;127.108;2022-12-05T07:59:51;3.25;;;1.83;;
48028;SDS011;33808;37.368;127.108;2022-12-05T08:02:21;5.05;;;1.90;;
48028;SDS011;33808;37.368;127.108;2022-12-05T08:04:51;3.45;;;1.90;;
48028;SDS011;33808;37.368;127.108;2022-12-05T08:07:20;5.40;;;1.90;;
48028;SDS011;33808;37.368;127.108;2022-12-05T08:09:50;6.07;;;2.00;;
48028;SDS011;33808;37.368;127.108;2022-12-05T08:12:20;6.75;;;2.20;;
48028;SDS011;33808;37.368;127.108;2022-12-05T08:14:50;3.40;;;2.17;;
48028;SDS011;33808;37.368;127.108;2022-12-05T08:17:19;3.35;;;2.08;;
48028;SDS011;33808;37.368;127.108;2022-12-05T08:19:49;4.00;;;2.13;;
48028;SDS011;33808;37.368;127.108;2022-12-05T08:22:18;4.70;;;2.20;;
48028;SDS011;33808;37.368;127.108;2022-12-05T08:24:51;5.40;;;1.98;;
48028;SDS011;33808;37.368;127.108;2022-12-05T08:27:22;2.75;;;1.85;;
48028;SDS011;33808;37.368;127.108;2022-12-05T08:29:52;3.90;;;2.10;;
48028;SDS011;33808;37.368;127.108;2022-12-05T08:32:23;3.38;;;2.38;;
48028;SDS011;33808;37.368;127.108;2022-12-05T08:34:52;4.57;;;2.47;;
48028;SDS011;33808;37.368;127.108;2022-12-05T08:37:22;5.88;;;2.50;;
48028;SDS011;33808;37.368;127.108;2022-12-05T08:39:51;5.32;;;2.13;;
48028;SDS011;33808;37.368;127.108;2022-12-05T08:42:21;5.32;;;2.25;;
48028;SDS011;33808;37.368;127.108;2022-12-05T08:44:51;5.70;;;1.98;;
48028;SDS011;33808;37.368;127.108;2022-12-05T08:47:21;3.55;;;2.20;;
48028;SDS011;33808;37.368;127.108;2022-12-05T08:49:51;5.15;;;2.30;;
48028;SDS011;33808;37.368;127.108;2022-12-05T08:52:20;3.95;;;2.40;;
48028;SDS011;33808;37.368;127.108;2022-12-05T08:54:50;5.72;;;2.67;;
48028;SDS011;33808;37.368;127.108;2022-12-05T08:57:20;5.68;;;2.30;;
48028;SDS011;33808;37.368;127.108;2022-12-05T08:59:49;3.28;;;2.20;;
48028;SDS011;33808;37.368;127.108;2022-12-05T09:02:19;3.75;;;2.22;;
48028;SDS011;33808;37.368;127.108;2022-12-05T09:04:49;4.47;;;2.20;;
48028;SDS011;33808;37.368;127.108;2022-12-05T09:07:20;5.88;;;2.40;;
48028;SDS011;33808;37.368;127.108;2022-12-05T09:09:49;5.03;;;2.17;;
48028;SDS011;33808;37.368;127.108;2022-12-05T09:12:19;4.35;;;2.83;;
48028;SDS011;33808;37.368;127.108;2022-12-05T09:14:49;4.88;;;2.50;;
48028;SDS011;33808;37.368;127.108;2022-12-05T09:17:18;3.95;;;2.45;;
48028;SDS011;33808;37.368;127.108;2022-12-05T09:19:50;4.15;;;2.42;;
48028;SDS011;33808;37.368;127.108;2022-12-05T09:22:20;3.70;;;2.00;;
48028;SDS011;33808;37.368;127.108;2022-12-05T09:24:52;4.25;;;2.58;;
48028;SDS011;33808;37.368;127.108;2022-12-05T09:27:22;3.38;;;2.22;;
48028;SDS011;33808;37.368;127.108;2022-12-05T09:29:52;3.67;;;2.08;;
48028;SDS011;33808;37.368;127.108;2022-12-05T09:32:21;3.63;;;2.08;;
48028;SDS011;33808;37.368;127.108;2022-12-05T09:34:51;3.45;;;2.30;;
48028;SDS011;33808;37.368;127.108;2022-12-05T09:37:22;4.55;;;2.30;;
48028;SDS011;33808;37.368;127.108;2022-12-05T09:40:06;3.65;;;2.20;;
48028;SDS011;33808;37.368;127.108;2022-12-05T09:45:41;6.07;;;2.42;;
48028;SDS011;33808;37.368;127.108;2022-12-05T09:48:21;3.58;;;2.28;;
48028;SDS011;33808;37.368;127.108;2022-12-05T09:51:01;6.18;;;2.47;;
48028;SDS011;33808;37.368;127.108;2022-12-05T09:53:35;5.53;;;2.47;;
48028;SDS011;33808;37.368;127.108;2022-12-05T09:58:50;4.15;;;2.40;;
48028;SDS011;33808;37.368;127.108;2022-12-05T10:07:16;5.28;;;2.63;;
48028;SDS011;33808;37.368;127.108;2022-12-05T10:18:14;4.78;;;2.60;;
48028;SDS011;33808;37.368;127.108;2022-12-05T10:26:25;4.43;;;2.38;;
48028;SDS011;33808;37.368;127.108;2022-12-05T10:31:53;4.85;;;2.38;;
48028;SDS011;33808;37.368;127.108;2022-12-05T10:34:45;5.03;;;2.40;;
48028;SDS011;33808;37.368;127.108;2022-12-05T10:37:18;5.35;;;2.85;;
48028;SDS011;33808;37.368;127.108;2022-12-05T10:39:49;5.10;;;2.58;;
48028;SDS011;33808;37.368;127.108;2022-12-05T10:42:24;4.40;;;2.42;;
48028;SDS011;33808;37.368;127.108;2022-12-05T10:45:03;6.65;;;2.40;;
48028;SDS011;33808;37.368;127.108;2022-12-05T10:47:36;4.82;;;2.83;;
48028;SDS011;33808;37.368;127.108;2022-12-05T10:50:12;5.78;;;2.70;;
48028;SDS011;33808;37.368;127.108;2022-12-05T10:53:05;8.05;;;2.95;;
48028;SDS011;33808;37.368;127.108;2022-12-05T10:55:44;4.60;;;2.28;;
48028;SDS011;33808;37.368;127.108;2022-12-05T10:58:35;4.93;;;2.15;;
48028;SDS011;33808;37.368;127.108;2022-12-05T11:01:08;6.65;;;2.65;;
48028;SDS011;33808;37.368;127.108;2022-12-05T11:03:42;7.15;;;2.88;;
48028;SDS011;33808;37.368;127.108;2022-12-05T11:06:16;9.07;;;3.17;;
48028;SDS011;33808;37.368;127.108;2022-12-05T11:09:34;5.47;;;2.33;;
48028;SDS011;33808;37.368;127.108;2022-12-05T11:12:11;4.78;;;2.75;;
48028;SDS011;33808;37.368;127.108;2022-12-05T11:17:36;5.95;;;2.70;;
48028;SDS011;33808;37.368;127.108;2022-12-05T11:22:43;4.18;;;2.85;;
48028;SDS011;33808;37.368;127.108;2022-12-05T11:33:31;4.90;;;3.08;;
48028;SDS011;33808;37.368;127.108;2022-12-05T11:38:36;5.80;;;3.08;;
48028;SDS011;33808;37.368;127.108;2022-12-05T11:46:59;6.10;;;2.97;;
48028;SDS011;33808;37.368;127.108;2022-12-05T12:06:24;6.32;;;3.40;;
48028;SDS011;33808;37.368;127.108;2022-12-05T12:11:52;6.93;;;3.08;;
48028;SDS011;33808;37.368;127.108;2022-12-05T12:20:13;5.78;;;3.25;;
48028;SDS011;33808;37.368;127.108;2022-12-05T12:31:14;8.70;;;3.30;;
48028;SDS011;33808;37.368;127.108;2022-12-05T12:34:23;5.55;;;3.10;;
48028;SDS011;33808;37.368;127.108;2022-12-05T12:37:22;7.57;;;3.38;;
48028;SDS011;33808;37.368;127.108;2022-12-05T12:40:18;6.03;;;2.95;;
48028;SDS011;33808;37.368;127.108;2022-12-05T12:43:00;7.75;;;3.50;;
48028;SDS011;33808;37.368;127.108;2022-12-05T12:45:43;8.38;;;3.58;;
48028;SDS011;33808;37.368;127.108;2022-12-05T12:51:31;7.65;;;3.17;;
48028;SDS011;33808;37.368;127.108;2022-12-05T12:57:15;6.40;;;3.35;;
48028;SDS011;33808;37.368;127.108;2022-12-05T13:03:02;5.88;;;3.63;;
48028;SDS011;33808;37.368;127.108;2022-12-05T13:11:07;5.50;;;3.05;;
48028;SDS011;33808;37.368;127.108;2022-12-05T13:13:45;5.90;;;3.30;;
48028;SDS011;33808;37.368;127.108;2022-12-05T13:16:33;5.82;;;3.40;;
48028;SDS011;33808;37.368;127.108;2022-12-05T13:19:17;6.45;;;3.60;;
48028;SDS011;33808;37.368;127.108;2022-12-05T13:21:50;4.95;;;3.25;;
48028;SDS011;33808;37.368;127.108;2022-12-05T13:24:22;6.38;;;3.35;;
48028;SDS011;33808;37.368;127.108;2022-12-05T13:26:59;8.60;;;3.50;;
48028;SDS011;33808;37.368;127.108;2022-12-05T13:29:34;5.85;;;3.08;;
48028;SDS011;33808;37.368;127.108;2022-12-05T13:32:31;6.90;;;3.22;;
48028;SDS011;33808;37.368;127.108;2022-12-05T13:38:28;7.63;;;3.58;;
48028;SDS011;33808;37.368;127.108;2022-12-05T13:41:45;6.93;;;3.47;;
48028;SDS011;33808;37.368;127.108;2022-12-05T13:44:43;6.85;;;3.83;;
48028;SDS011;33808;37.368;127.108;2022-12-05T13:48:01;8.10;;;3.50;;
48028;SDS011;33808;37.368;127.108;2022-12-05T13:50:43;5.65;;;3.28;;
48028;SDS011;33808;37.368;127.108;2022-12-05T13:53:24;7.30;;;3.80;;
48028;SDS011;33808;37.368;127.108;2022-12-05T13:56:02;7.10;;;3.58;;
48028;SDS011;33808;37.368;127.108;2022-12-05T14:03:57;5.72;;;3.58;;
48028;SDS011;33808;37.368;127.108;2022-12-05T14:17:40;9.27;;;4.25;;
48028;SDS011;33808;37.368;127.108;2022-12-05T14:25:47;6.65;;;3.25;;
48028;SDS011;33808;37.368;127.108;2022-12-05T14:34:14;5.57;;;3.70;;
48028;SDS011;33808;37.368;127.108;2022-12-05T14:44:56;6.63;;;3.72;;
48028;SDS011;33808;37.368;127.108;2022-12-05T14:47:29;6.63;;;3.50;;
48028;SDS011;33808;37.368;127.108;2022-12-05T15:01:41;7.03;;;3.70;;
48028;SDS011;33808;37.368;127.108;2022-12-05T15:07:11;8.57;;;3.72;;
48028;SDS011;33808;37.368;127.108;2022-12-05T15:12:42;5.70;;;3.42;;
48028;SDS011;33808;37.368;127.108;2022-12-05T15:15:23;8.80;;;3.65;;
48028;SDS011;33808;37.368;127.108;2022-12-05T15:26:17;6.10;;;3.40;;
48028;SDS011;33808;37.368;127.108;2022-12-05T15:31:52;6.15;;;3.60;;
48028;SDS011;33808;37.368;127.108;2022-12-05T15:37:27;6.90;;;3.42;;
48028;SDS011;33808;37.368;127.108;2022-12-05T15:40:02;8.13;;;4.07;;
48028;SDS011;33808;37.368;127.108;2022-12-05T15:47:42;8.63;;;4.20;;
48028;SDS011;33808;37.368;127.108;2022-12-05T15:52:50;7.03;;;4.00;;
48028;SDS011;33808;37.368;127.108;2022-12-05T15:55:30;10.23;;;4.22;;
48028;SDS011;33808;37.368;127.108;2022-12-05T15:58:12;7.00;;;3.80;;
48028;SDS011;33808;37.368;127.108;2022-12-05T16:09:07;6.95;;;3.88;;
48028;SDS011;33808;37.368;127.108;2022-12-05T16:14:48;11.45;;;4.20;;
48028;SDS011;33808;37.368;127.108;2022-12-05T16:17:28;8.82;;;3.75;;
48028;SDS011;33808;37.368;127.108;2022-12-05T16:20:19;7.18;;;3.80;;
48028;SDS011;33808;37.368;127.108;2022-12-05T16:23:04;10.90;;;4.45;;
48028;SDS011;33808;37.368;127.108;2022-12-05T16:25:50;7.38;;;3.80;;
48028;SDS011;33808;37.368;127.108;2022-12-05T16:28:20;5.93;;;3.45;;
48028;SDS011;33808;37.368;127.108;2022-12-05T16:30:57;6.22;;;3.80;;
48028;SDS011;33808;37.368;127.108;2022-12-05T16:33:29;7.63;;;4.10;;
48028;SDS011;33808;37.368;127.108;2022-12-05T16:36:09;6.65;;;3.85;;
48028;SDS011;33808;37.368;127.108;2022-12-05T16:38:40;7.72;;;4.05;;
48028;SDS011;33808;37.368;127.108;2022-12-05T16:41:12;8.27;;;3.85;;
48028;SDS011;33808;37.368;127.108;2022-12-05T16:43:44;9.38;;;4.30;;
48028;SDS011;33808;37.368;127.108;2022-12-05T16:49:11;9.75;;;4.20;;
48028;SDS011;33808;37.368;127.108;2022-12-05T16:51:45;7.40;;;3.85;;
48028;SDS011;33808;37.368;127.108;2022-12-05T16:54:22;6.10;;;3.95;;
48028;SDS011;33808;37.368;127.108;2022-12-05T16:56:51;8.45;;;3.97;;
48028;SDS011;33808;37.368;127.108;2022-12-05T16:59:23;8.18;;;4.38;;
48028;SDS011;33808;37.368;127.108;2022-12-05T17:01:56;4.93;;;3.45;;
48028;SDS011;33808;37.368;127.108;2022-12-05T17:04:25;8.00;;;3.90;;
48028;SDS011;33808;37.368;127.108;2022-12-05T17:06:56;8.27;;;3.83;;
48028;SDS011;33808;37.368;127.108;2022-12-05T17:09:25;6.30;;;3.53;;
48028;SDS011;33808;37.368;127.108;2022-12-05T17:11:58;8.70;;;4.85;;
48028;SDS011;33808;37.368;127.108;2022-12-05T17:14:35;6.45;;;3.95;;
48028;SDS011;33808;37.368;127.108;2022-12-05T17:17:09;6.55;;;3.58;;
48028;SDS011;33808;37.368;127.108;2022-12-05T17:19:40;7.70;;;3.60;;
48028;SDS011;33808;37.368;127.108;2022-12-05T17:22:11;7.38;;;4.25;;
48028;SDS011;33808;37.368;127.108;2022-12-05T17:24:43;10.40;;;4.60;;
48028;SDS011;33808;37.368;127.108;2022-12-05T17:27:12;6.95;;;4.03;;
48028;SDS011;33808;37.368;127.108;2022-12-05T17:29:42;6.60;;;4.05;;
48028;SDS011;33808;37.368;127.108;2022-12-05T17:32:11;7.13;;;4.32;;
48028;SDS011;33808;37.368;127.108;2022-12-05T17:34:42;8.23;;;4.10;;
48028;SDS011;33808;37.368;127.108;2022-12-05T17:37:11;9.18;;;4.22;;
48028;SDS011;33808;37.368;127.108;2022-12-05T17:39:41;8.05;;;3.88;;
48028;SDS011;33808;37.368;127.108;2022-12-05T17:42:10;6.40;;;3.80;;
48028;SDS011;33808;37.368;127.108;2022-12-05T17:44:40;7.85;;;4.18;;
48028;SDS011;33808;37.368;127.108;2022-12-05T17:47:10;8.55;;;4.00;;
48028;SDS011;33808;37.368;127.108;2022-12-05T17:49:39;7.65;;;3.85;;
48028;SDS011;33808;37.368;127.108;2022-12-05T17:52:09;9.23;;;3.80;;
48028;SDS011;33808;37.368;127.108;2022-12-05T17:54:47;7.50;;;4.10;;
48028;SDS011;33808;37.368;127.108;2022-12-05T17:57:17;9.32;;;4.25;;
48028;SDS011;33808;37.368;127.108;2022-12-05T17:59:47;10.25;;;3.80;;
48028;SDS011;33808;37.368;127.108;2022-12-05T18:02:16;6.57;;;3.88;;
48028;SDS011;33808;37.368;127.108;2022-12-05T18:04:47;6.32;;;3.97;;
48028;SDS011;33808;37.368;127.108;2022-12-05T18:07:16;7.55;;;4.00;;
48028;SDS011;33808;37.368;127.108;2022-12-05T18:09:46;8.60;;;4.45;;
48028;SDS011;33808;37.368;127.108;2022-12-05T18:12:16;9.32;;;4.03;;
48028;SDS011;33808;37.368;127.108;2022-12-05T18:14:45;8.50;;;4.10;;
48028;SDS011;33808;37.368;127.108;2022-12-05T18:17:15;8.30;;;3.90;;
48028;SDS011;33808;37.368;127.108;2022-12-05T18:19:44;7.97;;;4.40;;
48028;SDS011;33808;37.368;127.108;2022-12-05T18:22:14;7.35;;;4.10;;
48028;SDS011;33808;37.368;127.108;2022-12-05T18:24:47;7.80;;;3.83;;
48028;SDS011;33808;37.368;127.108;2022-12-05T18:27:17;7.03;;;4.03;;
48028;SDS011;33808;37.368;127.108;2022-12-05T18:29:48;7.03;;;4.45;;
48028;SDS011;33808;37.368;127.108;2022-12-05T18:32:18;6.07;;;3.55;;
48028;SDS011;33808;37.368;127.108;2022-12-05T18:34:48;7.72;;;4.10;;
48028;SDS011;33808;37.368;127.108;2022-12-05T18:37:18;6.18;;;3.80;;
48028;SDS011;33808;37.368;127.108;2022-12-05T18:39:49;8.88;;;4.15;;
48028;SDS011;33808;37.368;127.108;2022-12-05T18:42:18;8.07;;;4.45;;
48028;SDS011;33808;37.368;127.108;2022-12-05T18:44:48;7.05;;;3.83;;
48028;SDS011;33808;37.368;127.108;2022-12-05T18:47:18;8.10;;;4.07;;
48028;SDS011;33808;37.368;127.108;2022-12-05T18:49:47;7.13;;;4.25;;
48028;SDS011;33808;37.368;127.108;2022-12-05T18:52:17;7.70;;;3.80;;
48028;SDS011;33808;37.368;127.108;2022-12-05T18:54:47;11.13;;;4.25;;
48028;SDS011;33808;37.368;127.108;2022-12-05T18:57:37;7.82;;;4.13;;
48028;SDS011;33808;37.368;127.108;2022-12-05T19:00:07;7.30;;;3.85;;
48028;SDS011;33808;37.368;127.108;2022-12-05T19:02:37;7.40;;;4.22;;